Terminal Aerodrome Forecast
Issued by NWS Kansas City/Pleasant Hill, MO

Home | Current Version | Previous Version | Text Only | Print | Product List | Glossary On
Versions: 1 2 3 4 5 6 7 8 9 10 11 12 13 14 15 16 17 18 19 20
000
FTUS43 KEAX 181900 AAA
TAFMCI
TAF AMD
KMCI 181941Z 1820/1918 07004KT 6SM BR OVC009
      TEMPO 1820/1823 5SM BR OVC012
     FM190300 VRB03KT 2SM BR OVC007=

USA.gov is the U.S. government's official web portal to all federal, state and local government web resources and services.